createdAt,value
2018-12-10T00:00:14.614Z,4.00
2018-12-10T00:02:48.793Z,4.03
2018-12-10T00:05:18.207Z,3.98
2018-12-10T00:07:47.300Z,3.95
2018-12-10T00:10:16.390Z,3.94
2018-12-10T00:12:45.587Z,3.88
2018-12-10T00:15:14.787Z,3.97
2018-12-10T00:17:44.023Z,3.98
2018-12-10T00:20:13.111Z,4.01
2018-12-10T00:22:42.229Z,4.06
2018-12-10T00:25:11.527Z,4.05
2018-12-10T00:27:40.810Z,4.14
2018-12-10T00:30:10.087Z,4.15
2018-12-10T00:32:39.587Z,4.20
2018-12-10T00:35:08.811Z,4.22
2018-12-10T00:37:38.099Z,4.28
2018-12-10T00:40:07.721Z,4.24
2018-12-10T00:42:36.900Z,4.29
2018-12-10T00:45:06.422Z,4.26
2018-12-10T00:47:35.631Z,4.30
2018-12-10T00:50:05.752Z,4.31
2018-12-10T00:52:34.851Z,4.28
2018-12-10T00:55:04.342Z,4.19
2018-12-10T00:57:33.523Z,4.11
2018-12-10T01:00:02.823Z,4.06
2018-12-10T01:02:31.968Z,3.86
2018-12-10T01:05:01.140Z,3.87
2018-12-10T01:07:30.247Z,3.93
2018-12-10T01:09:59.347Z,3.90
2018-12-10T01:12:28.675Z,3.82
2018-12-10T01:14:57.761Z,3.84
2018-12-10T01:17:26.949Z,3.76
2018-12-10T01:19:56.029Z,3.73
2018-12-10T01:22:25.218Z,3.71
2018-12-10T01:24:54.626Z,3.73
2018-12-10T01:27:23.736Z,3.80
2018-12-10T01:29:52.889Z,3.78
2018-12-10T01:32:22.132Z,3.79
2018-12-10T01:34:51.214Z,3.12
2018-12-10T01:37:20.310Z,3.94
2018-12-10T01:39:49.508Z,3.88
2018-12-10T01:42:18.602Z,3.91
2018-12-10T01:44:47.813Z,3.94
2018-12-10T01:47:17.046Z,3.99
2018-12-10T01:49:46.378Z,3.97
2018-12-10T01:52:15.464Z,3.96
2018-12-10T01:54:44.558Z,3.98
2018-12-10T01:57:13.663Z,3.97
2018-12-10T01:59:42.842Z,4.04
2018-12-10T02:02:12.378Z,3.94
2018-12-10T02:04:41.694Z,3.97
2018-12-10T02:07:11.165Z,3.96
2018-12-10T02:09:40.438Z,3.92
2018-12-10T02:12:09.631Z,3.87
2018-12-10T02:14:38.782Z,3.89
2018-12-10T02:17:07.874Z,3.85
2018-12-10T02:19:36.954Z,3.82
2018-12-10T02:22:06.134Z,3.79
2018-12-10T02:24:35.250Z,3.71
2018-12-10T02:27:04.604Z,3.63
2018-12-10T02:29:33.756Z,3.64
2018-12-10T02:32:03.304Z,3.55
2018-12-10T02:34:32.397Z,3.43
2018-12-10T02:37:01.549Z,3.51
2018-12-10T02:39:30.738Z,3.50
2018-12-10T02:41:59.855Z,3.50
2018-12-10T02:44:29.023Z,3.45
2018-12-10T02:46:58.146Z,3.36
2018-12-10T02:49:27.341Z,3.31
2018-12-10T02:51:56.465Z,3.27
2018-12-10T02:54:25.628Z,3.17
2018-12-10T02:56:54.842Z,3.11
2018-12-10T02:59:24.009Z,3.25
2018-12-10T03:01:53.117Z,3.17
2018-12-10T03:04:22.207Z,3.21
2018-12-10T03:06:51.382Z,3.20
2018-12-10T03:09:20.516Z,3.05
2018-12-10T03:11:49.892Z,2.81
2018-12-10T03:14:18.988Z,2.71
2018-12-10T03:16:48.282Z,2.42
2018-12-10T03:19:17.496Z,2.57
2018-12-10T03:21:46.727Z,2.48
2018-12-10T03:24:15.956Z,2.34
2018-12-10T03:26:45.112Z,2.30
2018-12-10T03:29:14.502Z,2.20
2018-12-10T03:31:43.596Z,2.00
2018-12-10T03:34:12.912Z,2.08
2018-12-10T03:36:42.062Z,2.06
2018-12-10T03:39:11.174Z,2.14
2018-12-10T03:41:40.263Z,2.03
2018-12-10T03:44:09.374Z,1.88
2018-12-10T03:46:38.504Z,2.01
2018-12-10T03:49:07.660Z,1.69
2018-12-10T03:51:36.751Z,1.68
2018-12-10T03:54:06.052Z,1.46
2018-12-10T03:56:35.250Z,1.43
2018-12-10T03:59:04.358Z,1.68
2018-12-10T04:01:33.570Z,1.62
2018-12-10T04:04:02.762Z,1.67
2018-12-10T04:06:31.982Z,1.39
2018-12-10T04:09:01.206Z,1.45
2018-12-10T04:11:30.336Z,1.43
2018-12-10T04:13:59.435Z,1.60
2018-12-10T04:16:28.547Z,1.74
2018-12-10T04:18:57.642Z,1.54
2018-12-10T04:21:28.878Z,1.39
2018-12-10T04:23:58.074Z,1.53
2018-12-10T04:26:27.371Z,1.54
2018-12-10T04:28:56.622Z,1.56
2018-12-10T04:31:25.849Z,1.60
2018-12-10T04:33:55.519Z,1.46
2018-12-10T04:36:24.642Z,1.48
2018-12-10T04:38:53.873Z,1.37
2018-12-10T04:41:23.078Z,1.49
2018-12-10T04:43:52.274Z,1.40
2018-12-10T04:46:21.528Z,1.26
2018-12-10T04:48:50.716Z,1.05
2018-12-10T04:51:19.818Z,1.21
2018-12-10T04:53:48.970Z,1.16
2018-12-10T04:56:18.098Z,1.35
2018-12-10T04:58:47.567Z,1.37
2018-12-10T05:01:16.762Z,1.21
2018-12-10T05:03:46.094Z,1.35
2018-12-10T05:06:15.425Z,1.49
2018-12-10T05:08:44.669Z,1.46
2018-12-10T05:11:13.880Z,1.49
2018-12-10T05:13:43.181Z,1.32
2018-12-10T05:16:12.291Z,1.31
2018-12-10T05:18:41.372Z,1.39
2018-12-10T05:21:10.591Z,1.63
2018-12-10T05:23:39.684Z,1.54
2018-12-10T05:26:08.842Z,1.65
2018-12-10T05:28:37.943Z,1.46
2018-12-10T05:31:07.210Z,1.60
2018-12-10T05:33:36.444Z,1.55
2018-12-10T05:36:05.670Z,1.64
2018-12-10T05:38:34.973Z,1.55
2018-12-10T05:41:04.427Z,1.63
2018-12-10T05:43:33.625Z,1.72
2018-12-10T05:46:02.721Z,1.69
2018-12-10T05:48:31.835Z,1.82
2018-12-10T05:51:01.080Z,1.96
2018-12-10T05:53:30.186Z,2.04
2018-12-10T05:55:59.425Z,2.11
2018-12-10T05:58:28.811Z,2.22
2018-12-10T06:00:58.013Z,2.26
2018-12-10T06:03:27.202Z,2.29
2018-12-10T06:05:56.339Z,2.36
2018-12-10T06:08:25.455Z,2.34
2018-12-10T06:10:54.703Z,2.34
2018-12-10T06:13:23.903Z,1.71
2018-12-10T06:15:53.226Z,2.44
2018-12-10T06:18:22.509Z,2.41
2018-12-10T06:20:51.942Z,2.41
2018-12-10T06:23:21.149Z,2.43
2018-12-10T06:25:50.386Z,2.48
2018-12-10T06:28:19.618Z,2.50
2018-12-10T06:30:49.008Z,2.54
2018-12-10T06:33:18.787Z,2.62
2018-12-10T06:35:48.014Z,2.57
2018-12-10T06:38:17.133Z,2.62
2018-12-10T06:40:46.341Z,2.70
2018-12-10T06:43:15.460Z,2.67
2018-12-10T06:45:44.587Z,2.63
2018-12-10T06:48:13.697Z,2.69
2018-12-10T06:50:42.849Z,2.63
2018-12-10T06:53:12.117Z,2.69
2018-12-10T06:55:41.291Z,2.55
2018-12-10T06:58:10.471Z,2.58
2018-12-10T07:00:39.670Z,2.55
2018-12-10T07:03:08.750Z,2.57
2018-12-10T07:05:37.992Z,2.67
2018-12-10T07:08:07.131Z,2.65
2018-12-10T07:10:36.410Z,2.50
2018-12-10T07:13:06.731Z,2.44
2018-12-10T07:15:35.887Z,2.44
2018-12-10T07:18:05.091Z,2.53
2018-12-10T07:20:34.227Z,2.68
2018-12-10T07:23:03.423Z,2.54
2018-12-10T07:25:32.573Z,2.52
2018-12-10T07:28:02.080Z,2.57
2018-12-10T07:30:31.447Z,2.43
2018-12-10T07:33:00.540Z,2.44
2018-12-10T07:35:30.827Z,2.52
2018-12-10T07:38:00.251Z,2.46
2018-12-10T07:40:29.397Z,2.54
2018-12-10T07:42:58.549Z,2.53
2018-12-10T07:45:27.635Z,2.65
2018-12-10T07:47:56.794Z,2.69
2018-12-10T07:50:26.071Z,2.81
2018-12-10T07:52:55.162Z,2.70
2018-12-10T07:55:24.274Z,2.72
2018-12-10T07:57:55.241Z,2.83
2018-12-10T08:00:24.426Z,2.80
2018-12-10T08:02:53.539Z,2.85
2018-12-10T08:05:22.790Z,2.70
2018-12-10T08:07:51.966Z,2.76
2018-12-10T08:10:21.142Z,2.69
2018-12-10T08:12:50.250Z,2.71
2018-12-10T08:15:19.441Z,2.78
2018-12-10T08:17:48.657Z,2.89
2018-12-10T08:20:17.817Z,2.77
2018-12-10T08:22:46.986Z,2.75
2018-12-10T08:25:17.172Z,2.88
2018-12-10T08:27:46.369Z,2.79
2018-12-10T08:30:15.721Z,2.85
2018-12-10T08:32:44.894Z,2.76
2018-12-10T08:35:14.109Z,2.76
2018-12-10T08:37:43.202Z,2.87
2018-12-10T08:40:12.427Z,2.91
2018-12-10T08:42:41.605Z,2.82
2018-12-10T08:45:10.829Z,3.10
2018-12-10T08:47:40.117Z,2.85
2018-12-10T08:50:09.710Z,2.85
2018-12-10T08:52:38.909Z,2.86
2018-12-10T08:55:08.299Z,2.95
2018-12-10T08:57:37.714Z,2.89
2018-12-10T09:00:07.131Z,2.94
2018-12-10T09:02:36.444Z,2.96
2018-12-10T09:05:06.999Z,2.97
2018-12-10T09:07:36.143Z,2.82
2018-12-10T09:10:06.502Z,2.83
2018-12-10T09:12:35.617Z,2.87
2018-12-10T09:15:05.806Z,2.98
2018-12-10T09:17:34.919Z,2.96
2018-12-10T09:20:04.247Z,2.92
2018-12-10T09:22:33.543Z,2.90
2018-12-10T09:25:02.660Z,2.77
2018-12-10T09:27:31.802Z,2.96
2018-12-10T09:30:00.904Z,2.90
2018-12-10T09:32:30.127Z,2.86
2018-12-10T09:34:59.292Z,2.81
2018-12-10T09:37:28.494Z,2.73
2018-12-10T09:39:57.583Z,2.69
2018-12-10T09:42:26.798Z,2.68
2018-12-10T09:44:56.015Z,2.73
2018-12-10T09:47:25.192Z,2.75
2018-12-10T09:49:54.297Z,2.83
2018-12-10T09:52:23.386Z,2.92
2018-12-10T09:54:52.506Z,2.99
2018-12-10T09:57:21.618Z,2.92
2018-12-10T09:59:50.736Z,2.96
2018-12-10T10:02:19.861Z,2.99
2018-12-10T10:04:49.097Z,3.13
2018-12-10T10:07:18.207Z,2.98
2018-12-10T10:09:47.572Z,3.00
2018-12-10T10:12:17.010Z,2.86
2018-12-10T10:14:46.111Z,2.92
2018-12-10T10:17:15.340Z,2.93
2018-12-10T10:19:44.479Z,3.00
2018-12-10T10:22:13.578Z,2.86
2018-12-10T10:24:42.818Z,2.93
2018-12-10T10:27:11.930Z,2.86
2018-12-10T10:29:41.064Z,2.98
2018-12-10T10:32:10.174Z,2.85
2018-12-10T10:34:39.332Z,2.88
2018-12-10T10:37:08.638Z,2.95
2018-12-10T10:39:37.741Z,2.96
2018-12-10T10:42:06.938Z,3.02
2018-12-10T10:44:36.019Z,3.02
2018-12-10T10:47:05.923Z,3.23
2018-12-10T10:49:35.039Z,3.06
2018-12-10T10:52:04.475Z,3.21
2018-12-10T10:54:33.647Z,3.18
2018-12-10T10:57:02.849Z,3.28
2018-12-10T10:59:32.067Z,3.26
2018-12-10T11:03:04.450Z,3.25
2018-12-10T11:05:33.638Z,3.82
2018-12-10T11:08:02.882Z,3.56
2018-12-10T11:10:31.998Z,3.36
2018-12-10T11:13:01.082Z,3.39
2018-12-10T11:15:30.506Z,3.27
2018-12-10T11:17:59.764Z,3.42
2018-12-10T11:20:29.270Z,3.22
2018-12-10T11:22:58.436Z,3.26
2018-12-10T11:25:28.514Z,3.14
2018-12-10T11:27:57.690Z,3.18
2018-12-10T11:30:26.809Z,3.10
2018-12-10T11:32:55.932Z,3.17
2018-12-10T11:35:25.137Z,3.27
2018-12-10T11:37:54.510Z,2.86
2018-12-10T11:40:23.630Z,3.01
2018-12-10T11:42:52.874Z,2.87
2018-12-10T11:45:22.433Z,2.75
2018-12-10T11:47:51.648Z,2.26
2018-12-10T11:50:21.218Z,2.23
2018-12-10T11:52:50.640Z,2.33
2018-12-10T11:55:19.792Z,2.67
2018-12-10T11:57:48.952Z,2.52
2018-12-10T12:00:18.258Z,2.64
2018-12-10T12:02:47.371Z,2.72
2018-12-10T12:05:16.563Z,2.76
2018-12-10T12:07:45.683Z,2.86
2018-12-10T12:10:14.895Z,2.89
2018-12-10T12:12:44.367Z,2.92
2018-12-10T12:15:13.769Z,2.87
2018-12-10T12:17:42.899Z,3.02
2018-12-10T12:20:12.331Z,2.99
2018-12-10T12:22:41.553Z,3.03
2018-12-10T12:25:10.851Z,2.82
2018-12-10T12:27:40.030Z,2.94
2018-12-10T12:30:09.784Z,3.01
2018-12-10T12:32:38.907Z,3.04
2018-12-10T12:35:08.230Z,3.06
2018-12-10T12:37:36.567Z,3.08
2018-12-10T12:40:06.062Z,3.06
2018-12-10T12:42:35.170Z,2.92
2018-12-10T12:45:05.294Z,2.96
2018-12-10T12:47:34.405Z,3.00
2018-12-10T12:50:03.738Z,3.04
2018-12-10T12:52:33.054Z,3.00
2018-12-10T12:55:02.171Z,3.43
2018-12-10T12:57:31.370Z,4.27
2018-12-10T13:00:00.462Z,6.35
2018-12-10T13:02:29.570Z,4.21
2018-12-10T13:04:58.795Z,3.87
2018-12-10T13:07:27.990Z,3.50
2018-12-10T13:09:57.124Z,3.28
2018-12-10T13:12:26.242Z,3.23
2018-12-10T13:14:55.358Z,3.01
2018-12-10T13:17:24.530Z,2.86
2018-12-10T13:19:53.858Z,2.77
2018-12-10T13:22:23.058Z,2.82
2018-12-10T13:24:52.255Z,2.67
2018-12-10T13:27:21.468Z,2.77
2018-12-10T13:29:50.679Z,2.90
2018-12-10T13:32:19.860Z,3.09
2018-12-10T13:34:48.963Z,3.22
2018-12-10T13:37:18.355Z,3.26
2018-12-10T13:39:47.456Z,3.28
2018-12-10T13:42:16.549Z,3.22
2018-12-10T13:44:45.645Z,3.07
2018-12-10T13:47:14.793Z,3.28
2018-12-10T13:49:43.896Z,3.22
2018-12-10T13:52:13.091Z,3.37
2018-12-10T13:54:42.183Z,4.85
2018-12-10T13:57:11.291Z,4.63
2018-12-10T13:59:40.412Z,4.68
2018-12-10T14:02:09.615Z,3.69
2018-12-10T14:04:42.948Z,3.51
2018-12-10T14:07:12.261Z,3.29
2018-12-10T14:09:41.419Z,3.59
2018-12-10T14:12:10.598Z,3.09
2018-12-10T14:14:39.727Z,2.96
2018-12-10T14:17:08.823Z,2.82
2018-12-10T14:19:37.903Z,2.83
2018-12-10T14:22:07.011Z,2.87
2018-12-10T14:24:36.373Z,2.69
2018-12-10T14:27:05.679Z,2.81
2018-12-10T14:29:34.970Z,2.55
2018-12-10T14:32:04.363Z,2.59
2018-12-10T14:34:33.489Z,2.67
2018-12-10T14:37:02.709Z,2.83
2018-12-10T14:39:32.062Z,2.62
2018-12-10T14:42:01.285Z,2.67
2018-12-10T14:44:30.511Z,2.48
2018-12-10T14:46:59.594Z,2.53
2018-12-10T14:49:28.746Z,2.59
2018-12-10T14:51:57.867Z,2.54
2018-12-10T14:54:26.965Z,2.45
2018-12-10T14:56:56.127Z,2.43
2018-12-10T14:59:25.214Z,2.47
2018-12-10T15:01:54.725Z,2.41
2018-12-10T15:04:23.830Z,2.47
2018-12-10T15:06:53.154Z,2.49
2018-12-10T15:09:22.330Z,2.42
2018-12-10T15:11:51.447Z,2.50
2018-12-10T15:14:20.618Z,2.53
2018-12-10T15:16:49.705Z,2.58
2018-12-10T15:19:18.870Z,2.46
2018-12-10T15:21:49.878Z,2.53
2018-12-10T15:24:18.970Z,2.59
2018-12-10T15:26:48.116Z,2.56
2018-12-10T15:29:17.372Z,2.54
2018-12-10T15:31:46.515Z,2.51
2018-12-10T15:34:15.638Z,2.52
2018-12-10T15:36:44.738Z,2.49
2018-12-10T15:39:13.840Z,2.53
2018-12-10T15:41:42.918Z,2.58
2018-12-10T15:44:12.048Z,2.50
2018-12-10T15:46:41.178Z,2.50
2018-12-10T15:49:10.310Z,2.50
2018-12-10T15:51:39.449Z,2.51
2018-12-10T15:54:08.540Z,2.47
2018-12-10T15:56:37.662Z,2.38
2018-12-10T15:59:06.794Z,2.32
2018-12-10T16:01:36.218Z,2.29
2018-12-10T16:04:05.346Z,2.28
2018-12-10T16:06:34.531Z,2.36
2018-12-10T16:09:05.806Z,2.29
2018-12-10T16:11:35.127Z,2.30
2018-12-10T16:14:04.414Z,2.22
2018-12-10T16:16:33.693Z,2.17
2018-12-10T16:19:03.159Z,2.17
2018-12-10T16:21:32.529Z,2.20
2018-12-10T16:24:01.687Z,2.14
2018-12-10T16:26:30.882Z,2.17
2018-12-10T16:29:00.009Z,2.28
2018-12-10T16:31:29.102Z,2.26
2018-12-10T16:33:58.216Z,2.28
2018-12-10T16:36:27.768Z,2.33
2018-12-10T16:38:56.917Z,2.33
2018-12-10T16:41:26.098Z,2.34
2018-12-10T16:43:55.580Z,2.30
2018-12-10T16:46:24.970Z,2.25
2018-12-10T16:48:54.290Z,2.29
2018-12-10T16:51:23.495Z,2.32
2018-12-10T16:53:52.594Z,2.33
2018-12-10T16:56:21.998Z,2.32
2018-12-10T16:58:51.174Z,2.29
2018-12-10T17:01:20.269Z,2.28
2018-12-10T17:03:49.480Z,2.31
2018-12-10T17:06:18.652Z,2.33
2018-12-10T17:08:47.949Z,2.29
2018-12-10T17:11:17.150Z,2.30
2018-12-10T17:13:46.230Z,2.30
2018-12-10T17:16:15.426Z,2.28
2018-12-10T17:18:45.895Z,2.32
2018-12-10T17:21:15.013Z,2.32
2018-12-10T17:23:44.368Z,2.31
2018-12-10T17:26:13.482Z,2.37
2018-12-10T17:28:42.686Z,2.35
2018-12-10T17:31:11.931Z,2.41
2018-12-10T17:33:41.142Z,2.29
2018-12-10T17:36:10.458Z,2.30
2018-12-10T17:38:39.658Z,2.29
2018-12-10T17:41:09.023Z,2.31
2018-12-10T17:43:38.325Z,2.29
2018-12-10T17:46:07.485Z,2.28
2018-12-10T17:48:36.784Z,2.27
2018-12-10T17:51:06.193Z,1.84
2018-12-10T17:53:35.376Z,2.29
2018-12-10T17:56:04.705Z,2.33
2018-12-10T17:58:33.873Z,2.35
2018-12-10T18:01:03.107Z,2.29
2018-12-10T18:03:32.336Z,2.29
2018-12-10T18:06:01.968Z,2.25
2018-12-10T18:08:31.236Z,2.29
2018-12-10T18:11:00.583Z,2.27
2018-12-10T18:13:29.695Z,2.26
2018-12-10T18:15:58.955Z,2.34
2018-12-10T18:18:28.065Z,2.40
2018-12-10T18:20:57.250Z,2.38
2018-12-10T18:23:26.343Z,2.35
2018-12-10T18:25:55.471Z,2.40
2018-12-10T18:28:24.637Z,2.42
2018-12-10T18:30:53.959Z,2.51
2018-12-10T18:33:23.156Z,2.53
2018-12-10T18:35:53.375Z,2.55
2018-12-10T18:38:22.479Z,2.53
2018-12-10T18:40:51.749Z,2.53
2018-12-10T18:43:20.977Z,2.48
2018-12-10T18:45:50.050Z,2.46
2018-12-10T18:48:19.198Z,2.44
2018-12-10T18:50:48.311Z,2.43
2018-12-10T18:53:17.650Z,2.48
2018-12-10T18:55:47.606Z,2.47
2018-12-10T18:58:16.744Z,2.41
2018-12-10T19:00:46.042Z,2.35
2018-12-10T19:03:15.206Z,2.34
2018-12-10T19:05:44.346Z,2.31
2018-12-10T19:08:13.452Z,2.26
2018-12-10T19:10:42.590Z,2.22
2018-12-10T19:13:11.740Z,2.19
2018-12-10T19:15:40.843Z,2.26
2018-12-10T19:18:10.041Z,2.20
2018-12-10T19:20:39.318Z,2.16
2018-12-10T19:23:09.033Z,2.19
2018-12-10T19:25:38.168Z,2.21
2018-12-10T19:28:07.342Z,2.20
2018-12-10T19:30:36.532Z,2.23
2018-12-10T19:33:05.732Z,2.23
2018-12-10T19:35:34.936Z,2.21
2018-12-10T19:38:04.062Z,2.21
2018-12-10T19:40:36.521Z,2.23
2018-12-10T19:43:06.420Z,2.28
2018-12-10T19:45:35.699Z,2.21
2018-12-10T19:48:05.048Z,2.20
2018-12-10T19:50:35.146Z,2.22
2018-12-10T19:53:04.445Z,2.18
2018-12-10T19:55:33.602Z,2.22
2018-12-10T19:58:02.856Z,2.14
2018-12-10T20:00:32.142Z,2.08
2018-12-10T20:03:05.080Z,2.08
2018-12-10T20:05:38.235Z,1.97
2018-12-10T20:08:07.511Z,2.10
2018-12-10T20:10:36.603Z,2.04
2018-12-10T20:13:05.812Z,2.04
2018-12-10T20:15:34.904Z,1.97
2018-12-10T20:18:04.299Z,2.02
2018-12-10T20:20:33.495Z,1.96
2018-12-10T20:23:02.647Z,1.67
2018-12-10T20:25:31.997Z,1.42
2018-12-10T20:28:01.212Z,1.01
2018-12-10T20:30:30.584Z,0.58
2018-12-10T20:33:00.064Z,0.51
2018-12-10T20:35:29.339Z,0.42
2018-12-10T20:37:58.588Z,0.33
2018-12-10T20:40:27.894Z,0.70
2018-12-10T20:42:57.247Z,0.67
2018-12-10T20:45:26.378Z,0.82
2018-12-10T20:47:55.590Z,0.81
2018-12-10T20:50:24.696Z,0.79
2018-12-10T20:52:53.875Z,0.76
2018-12-10T20:55:23.030Z,0.77
2018-12-10T20:57:52.126Z,0.70
2018-12-10T21:00:21.409Z,0.77
2018-12-10T21:02:50.561Z,0.69
2018-12-10T21:05:19.638Z,0.55
2018-12-10T21:07:48.944Z,0.58
2018-12-10T21:10:18.184Z,0.55
2018-12-10T21:12:47.382Z,0.57
2018-12-10T21:15:16.810Z,0.51
2018-12-10T21:17:46.088Z,0.43
2018-12-10T21:20:15.331Z,0.44
2018-12-10T21:22:44.465Z,0.40
2018-12-10T21:25:13.774Z,0.44
2018-12-10T21:27:43.133Z,0.48
2018-12-10T21:30:12.455Z,0.50
2018-12-10T21:32:41.554Z,0.64
2018-12-10T21:35:10.769Z,0.66
2018-12-10T21:37:40.001Z,0.70
2018-12-10T21:40:09.276Z,0.64
2018-12-10T21:42:39.027Z,0.68
2018-12-10T21:45:08.962Z,0.75
2018-12-10T21:47:38.378Z,0.71
2018-12-10T21:50:07.775Z,0.80
2018-12-10T21:52:36.856Z,0.62
2018-12-10T21:55:07.017Z,0.64
2018-12-10T21:57:36.332Z,0.77
2018-12-10T22:00:06.008Z,0.74
2018-12-10T22:02:35.199Z,0.72
2018-12-10T22:05:04.791Z,0.56
2018-12-10T22:07:34.011Z,0.60
2018-12-10T22:10:03.113Z,0.69
2018-12-10T22:12:32.251Z,0.80
2018-12-10T22:15:01.384Z,0.72
2018-12-10T22:17:30.474Z,0.75
2018-12-10T22:19:59.798Z,0.65
2018-12-10T22:22:28.912Z,0.58
2018-12-10T22:24:58.218Z,0.65
2018-12-10T22:27:27.351Z,0.60
2018-12-10T22:29:56.418Z,0.53
2018-12-10T22:32:25.538Z,0.52
2018-12-10T22:34:54.682Z,0.47
2018-12-10T22:37:23.874Z,0.41
2018-12-10T22:39:53.062Z,0.37
2018-12-10T22:42:22.214Z,-0.05
2018-12-10T22:44:51.387Z,0.34
2018-12-10T22:47:20.459Z,0.25
2018-12-10T22:49:49.577Z,0.31
2018-12-10T22:52:18.799Z,0.33
2018-12-10T22:54:47.928Z,0.34
2018-12-10T22:57:17.144Z,0.27
2018-12-10T22:59:46.236Z,0.34
2018-12-10T23:02:15.418Z,0.27
2018-12-10T23:04:44.541Z,0.31
2018-12-10T23:07:13.726Z,0.21
2018-12-10T23:09:42.921Z,0.16
2018-12-10T23:12:12.035Z,0.17
2018-12-10T23:14:41.226Z,0.23
2018-12-10T23:17:10.309Z,0.16
2018-12-10T23:19:39.451Z,0.15
2018-12-10T23:22:08.642Z,0.12
2018-12-10T23:24:37.749Z,0.15
2018-12-10T23:27:06.893Z,0.36
2018-12-10T23:29:36.125Z,0.34
2018-12-10T23:32:05.836Z,0.49
2018-12-10T23:34:34.947Z,0.74
2018-12-10T23:37:04.131Z,0.74
2018-12-10T23:39:34.030Z,0.42
2018-12-10T23:42:03.139Z,0.33
2018-12-10T23:44:37.910Z,0.46
2018-12-10T23:47:07.020Z,0.38
2018-12-10T23:49:36.217Z,0.56
2018-12-10T23:52:05.412Z,0.97
2018-12-10T23:54:34.643Z,0.92
2018-12-10T23:57:03.843Z,0.65
2018-12-10T23:59:32.963Z,0.57
